Home > Products > Valid Products > TAF

000
FTUS41 KLWX 280851 AAA
TAFDCA
TAF AMD
KDCA 280851Z 2809/2906 19009KT P6SM SKC
     FM282000 17010KT P6SM SCT250
     FM290200 17006KT P6SM FEW250=



000
FTUS41 KLWX 280851 AAA
TAFIAD
TAF AMD
KIAD 280851Z 2809/2912 19006KT P6SM SCT250
     FM281900 18009KT P6SM SCT250
     FM290300 17005KT P6SM FEW200=



000
FTUS41 KLWX 280851 AAA
TAFBWI
TAF AMD
KBWI 280851Z 2809/2912 16004KT P6SM FEW250
     FM281900 17009KT P6SM SCT250
     FM290300 17005KT P6SM FEW250=



000
FTUS41 KLWX 271737
TAFDCA
TAF
KDCA 271737Z 2718/2818 19007KT P6SM FEW045
     FM272300 18008KT P6SM VCTS SCT045CB
     FM280200 18006KT P6SM FEW040=



000
FTUS41 KLWX 271737
TAFCHO
TAF
KCHO 271737Z 2718/2818 17006KT P6SM FEW050
     FM272000 18005KT P6SM VCTS SCT050CB
     FM280200 VRB03KT P6SM SCT050
     FM280600 VRB03KT 5SM BR FEW050
     FM281400 19004KT P6SM SKC=



000
FTUS41 KLWX 271737
TAFBWI
TAF
KBWI 271737Z 2718/2824 19006KT P6SM SCT050
     FM272000 16010KT P6SM VCTS SCT050CB
     FM280200 18003KT P6SM FEW040=



000
FTUS41 KLWX 271737
TAFIAD
TAF
KIAD 271737Z 2718/2824 24005KT P6SM FEW040
     FM272200 18007KT P6SM VCTS SCT040CB
     FM280100 18006KT P6SM FEW040
     FM281000 19005KT 4SM BR SKC
     FM282000 18009KT P6SM SCT250=



000
FTUS41 KLWX 271737
TAFMRB
TAF
KMRB 271737Z 2718/2818 24005KT P6SM SCT150
     FM272000 19006KT P6SM VCTS BKN050CB
     FM272200 19005KT P6SM SCT050
     FM280500 VRB03KT P6SM SKC
     FM280600 VRB03KT 3SM BR SKC
     FM281000 00000KT 1 1/2SM BR SKC
     FM281400 00000KT P6SM SKC=



000
FTUS41 KLWX 271737
TAFMTN
TAF
KMTN 271737Z 2718/2818 13008KT P6SM FEW080
     FM272300 17010KT P6SM VCTS SCT040CB
     FM280200 18003KT P6SM FEW040
     FM280600 18006KT 3SM BR SKC=



000
FTUS41 KLWX 271505 AAA
TAFIAD
TAF AMD
KIAD 271505Z 2715/2818 VRB03KT P6SM SCT250
     FM271800 20006KT P6SM VCTS BKN050CB
     FM280000 18006KT P6SM BKN080
     FM280500 19005KT P6SM FEW080 SCT200=



000
FTUS41 KLWX 270541
TAFMRB
TAF
KMRB 270541Z 2706/2806 VRB03KT P6SM BKN070
     FM271100 00000KT P6SM SCT070
     FM271800 20005KT P6SM BKN050
     FM272300 19005KT P6SM SCT050
     FM280000 18004KT P6SM FEW080 SCT250=



000
FTUS41 KLWX 261127
TAFDCA
TAF
KDCA 261127Z 2612/2712 20004KT P6SM FEW050
     FM261600 19007KT P6SM SCT050
     FM262100 19008KT P6SM VCTS BKN050CB
     FM270000 17006KT P6SM BKN050
     FM270600 20004KT P6SM SCT090
     FM270900 20004KT 5SM BR BKN090=



000
FTUS41 KLWX 261127
TAFCHO
TAF
KCHO 261127Z 2612/2712 00000KT P6SM BKN110
     FM261600 21005KT P6SM VCTS SCT090CB
     FM261900 21006KT P6SM VCTS BKN050CB
     FM262200 21005KT P6SM SCT050
     FM270600 VRB03KT 3SM BR SCT090=



000
FTUS41 KLWX 261127
TAFIAD
TAF
KIAD 261127Z 2612/2718 VRB03KT P6SM FEW090 SCT150
     FM261600 20007KT P6SM BKN050
     FM262000 20007KT P6SM VCTS BKN050CB
     FM270000 18005KT P6SM BKN050
     FM270900 VRB03KT 3SM BR SCT090
     FM271200 VRB03KT P6SM SCT090=



000
FTUS41 KLWX 261127
TAFMRB
TAF
KMRB 261127Z 2612/2712 00000KT P6SM OVC100
     FM261800 20005KT P6SM -SHRA VCTS BKN050CB
     FM270000 19004KT P6SM SCT050
     FM270600 VRB03KT 3SM BR SCT090=



000
FTUS41 KLWX 261127
TAFBWI
TAF
KBWI 261127Z 2612/2718 VRB03KT P6SM SCT160
     FM261600 18007KT P6SM SCT050
     FM262200 17008KT P6SM VCTS BKN050CB
     FM270100 17006KT P6SM SCT050=



000
FTUS41 KLWX 261127
TAFMTN
TAF
KMTN 261127Z 2612/2712 VRB03KT P6SM SCT150
     FM261700 17007KT P6SM SCT090
     FM262200 17009KT P6SM VCTS BKN050CB
     FM270100 17007KT P6SM SCT050
     FM270800 VRB03KT P6SM BKN090=



000
FTUS41 KLWX 252334
TAFIAD
TAF
KIAD 252334Z 2600/2706 18006KT P6SM FEW250
     FM260800 VRB03KT P6SM SCT200
     FM261100 VRB03KT P6SM BKN090
     FM261400 21004KT P6SM SCT090
     FM261900 20007KT P6SM BKN060=



000
FTUS41 KLWX 252334
TAFDCA
TAF
KDCA 252334Z 2600/2624 20006KT P6SM FEW250
     FM261400 19008KT P6SM SCT090
     FM262000 19008KT P6SM BKN060=



000
FTUS41 KLWX 252334
TAFMTN
TAF
KMTN 252334Z 2600/2624 20005KT P6SM FEW250
     FM260800 VRB04KT P6SM FEW200
     FM261600 17006KT P6SM SCT150
     FM262100 17009KT P6SM BKN110
      AMD NOT SKED 2602/2612=



000
FTUS41 KLWX 252334
TAFBWI
TAF
KBWI 252334Z 2600/2706 20004KT P6SM FEW250
     FM260800 VRB04KT P6SM FEW200
     FM261600 19006KT P6SM SCT140
     FM261900 18008KT P6SM BKN110
     FM270500 19004KT P6SM BKN060=



000
FTUS41 KLWX 252334
TAFMRB
TAF
KMRB 252334Z 2600/2624 VRB04KT P6SM FEW250
     FM260800 VRB04KT P6SM BKN090
     FM261500 19006KT P6SM BKN070=



000
FTUS41 KLWX 252334
TAFCHO
TAF
KCHO 252334Z 2600/2624 18004KT P6SM FEW250
     FM260500 VRB04KT P6SM SCT200
     FM261100 VRB04KT P6SM BKN080
     FM261700 21005KT P6SM BKN070=



000
FTUS41 KLWX 252127 AAB
TAFDCA
TAF AMD
KDCA 252127Z 2521/2618 26008KT P6SM FEW250
     FM260300 18004KT P6SM FEW250=



000
FTUS41 KLWX 251832 AAA
TAFDCA
TAF AMD
KDCA 251832Z 2519/2618 26007G17KT P6SM FEW250
     FM260300 18004KT P6SM FEW250=



    US Dept of Commerce
    National Oceanic and Atmospheric Administration
    National Weather Service
    1325 East West Highway
    Silver Spring, MD 20910
    Page Author: NWS Internet Services Team
Disclaimer
Information Quality
Credits
Glossary
Privacy Policy
Freedom of Information Act (FOIA)
About Us
Career Opportunities